sensor_id;sensor_type;location;lat;lon;timestamp;temperature;humidity
70867;HTU21D;58487;53.474;49.470;2023-01-29T00:01:07;-6.36;86.51
70867;HTU21D;58487;53.474;49.470;2023-01-29T00:03:34;-6.34;86.45
70867;HTU21D;58487;53.474;49.470;2023-01-29T00:06:03;-6.37;86.33
70867;HTU21D;58487;53.474;49.470;2023-01-29T00:08:37;-6.43;86.59
70867;HTU21D;58487;53.474;49.470;2023-01-29T00:11:05;-6.39;87.04
70867;HTU21D;58487;53.474;49.470;2023-01-29T00:13:32;-6.39;86.46
70867;HTU21D;58487;53.474;49.470;2023-01-29T00:15:59;-6.41;86.22
70867;HTU21D;58487;53.474;49.470;2023-01-29T00:18:26;-6.38;87.01
70867;HTU21D;58487;53.474;49.470;2023-01-29T00:20:54;-6.45;86.92
70867;HTU21D;58487;53.474;49.470;2023-01-29T00:23:20;-6.45;87.04
70867;HTU21D;58487;53.474;49.470;2023-01-29T00:25:46;-6.41;87.08
70867;HTU21D;58487;53.474;49.470;2023-01-29T00:28:13;-6.39;86.79
70867;HTU21D;58487;53.474;49.470;2023-01-29T00:30:40;-6.49;87.38
70867;HTU21D;58487;53.474;49.470;2023-01-29T00:33:06;-6.46;87.30
70867;HTU21D;58487;53.474;49.470;2023-01-29T00:35:33;-6.52;87.93
70867;HTU21D;58487;53.474;49.470;2023-01-29T00:37:59;-6.49;87.65
70867;HTU21D;58487;53.474;49.470;2023-01-29T00:40:25;-6.46;87.46
70867;HTU21D;58487;53.474;49.470;2023-01-29T00:42:51;-6.58;87.77
70867;HTU21D;58487;53.474;49.470;2023-01-29T00:45:36;-6.74;87.94
70867;HTU21D;58487;53.474;49.470;2023-01-29T00:48:02;-6.73;88.80
70867;HTU21D;58487;53.474;49.470;2023-01-29T00:50:30;-6.66;88.91
70867;HTU21D;58487;53.474;49.470;2023-01-29T00:52:56;-6.62;88.23
70867;HTU21D;58487;53.474;49.470;2023-01-29T00:55:22;-6.64;88.24
70867;HTU21D;58487;53.474;49.470;2023-01-29T00:57:48;-6.50;87.61
70867;HTU21D;58487;53.474;49.470;2023-01-29T01:00:17;-6.59;87.35
70867;HTU21D;58487;53.474;49.470;2023-01-29T01:02:44;-6.73;87.64
70867;HTU21D;58487;53.474;49.470;2023-01-29T01:05:28;-6.86;87.99
70867;HTU21D;58487;53.474;49.470;2023-01-29T01:07:56;-6.90;88.94
70867;HTU21D;58487;53.474;49.470;2023-01-29T01:10:28;-6.86;88.78
70867;HTU21D;58487;53.474;49.470;2023-01-29T01:12:58;-6.85;88.15
70867;HTU21D;58487;53.474;49.470;2023-01-29T01:15:26;-6.94;87.88
70867;HTU21D;58487;53.474;49.470;2023-01-29T01:18:00;-6.95;87.91
70867;HTU21D;58487;53.474;49.470;2023-01-29T01:20:28;-6.94;87.96
70867;HTU21D;58487;53.474;49.470;2023-01-29T01:22:55;-6.95;87.40
70867;HTU21D;58487;53.474;49.470;2023-01-29T01:25:23;-6.92;87.49
70867;HTU21D;58487;53.474;49.470;2023-01-29T01:27:56;-6.93;87.36
70867;HTU21D;58487;53.474;49.470;2023-01-29T01:30:23;-7.01;87.15
70867;HTU21D;58487;53.474;49.470;2023-01-29T01:32:50;-7.07;87.28
70867;HTU21D;58487;53.474;49.470;2023-01-29T01:35:16;-7.13;87.88
70867;HTU21D;58487;53.474;49.470;2023-01-29T01:37:42;-7.05;87.58
70867;HTU21D;58487;53.474;49.470;2023-01-29T01:40:20;-7.08;87.43
70867;HTU21D;58487;53.474;49.470;2023-01-29T01:42:48;-7.05;87.10
70867;HTU21D;58487;53.474;49.470;2023-01-29T01:47:55;-7.06;86.54
70867;HTU21D;58487;53.474;49.470;2023-01-29T01:52:54;-7.25;86.99
70867;HTU21D;58487;53.474;49.470;2023-01-29T01:55:25;-7.31;87.85
70867;HTU21D;58487;53.474;49.470;2023-01-29T01:58:17;-7.31;87.57
70867;HTU21D;58487;53.474;49.470;2023-01-29T02:00:43;-7.26;87.51
70867;HTU21D;58487;53.474;49.470;2023-01-29T02:03:09;-7.23;87.39
70867;HTU21D;58487;53.474;49.470;2023-01-29T02:05:55;-7.23;86.86
70867;HTU21D;58487;53.474;49.470;2023-01-29T02:09:15;-7.19;86.60
70867;HTU21D;58487;53.474;49.470;2023-01-29T02:12:03;-7.17;86.43
70867;HTU21D;58487;53.474;49.470;2023-01-29T02:14:30;-7.03;86.25
70867;HTU21D;58487;53.474;49.470;2023-01-29T02:16:59;-7.08;85.83
70867;HTU21D;58487;53.474;49.470;2023-01-29T02:22:16;-7.07;86.29
70867;HTU21D;58487;53.474;49.470;2023-01-29T02:25:17;-7.09;86.06
70867;HTU21D;58487;53.474;49.470;2023-01-29T02:33:42;-7.06;85.68
70867;HTU21D;58487;53.474;49.470;2023-01-29T02:39:27;-7.36;86.74
70867;HTU21D;58487;53.474;49.470;2023-01-29T02:42:01;-7.29;86.77
70867;HTU21D;58487;53.474;49.470;2023-01-29T02:44:47;-7.26;86.46
70867;HTU21D;58487;53.474;49.470;2023-01-29T02:50:07;-7.31;86.45
70867;HTU21D;58487;53.474;49.470;2023-01-29T02:53:12;-7.34;87.43
70867;HTU21D;58487;53.474;49.470;2023-01-29T02:58:29;-7.46;86.88
70867;HTU21D;58487;53.474;49.470;2023-01-29T03:01:01;-7.53;87.25
70867;HTU21D;58487;53.474;49.470;2023-01-29T03:03:33;-7.54;87.54
70867;HTU21D;58487;53.474;49.470;2023-01-29T03:06:06;-7.56;87.44
70867;HTU21D;58487;53.474;49.470;2023-01-29T03:08:46;-7.63;87.46
70867;HTU21D;58487;53.474;49.470;2023-01-29T03:11:16;-7.61;87.73
70867;HTU21D;58487;53.474;49.470;2023-01-29T03:14:05;-7.63;87.63
70867;HTU21D;58487;53.474;49.470;2023-01-29T03:22:14;-7.67;87.89
70867;HTU21D;58487;53.474;49.470;2023-01-29T03:24:54;-7.66;88.05
70867;HTU21D;58487;53.474;49.470;2023-01-29T03:27:51;-7.74;87.48
70867;HTU21D;58487;53.474;49.470;2023-01-29T03:30:44;-7.56;87.67
70867;HTU21D;58487;53.474;49.470;2023-01-29T03:33:32;-7.48;87.22
70867;HTU21D;58487;53.474;49.470;2023-01-29T03:36:07;-7.60;87.41
70867;HTU21D;58487;53.474;49.470;2023-01-29T03:38:34;-7.51;87.71
70867;HTU21D;58487;53.474;49.470;2023-01-29T03:41:25;-7.46;87.03
70867;HTU21D;58487;53.474;49.470;2023-01-29T03:46:47;-7.52;86.70
70867;HTU21D;58487;53.474;49.470;2023-01-29T03:52:07;-7.54;86.57
70867;HTU21D;58487;53.474;49.470;2023-01-29T03:58:08;-7.59;85.30
70867;HTU21D;58487;53.474;49.470;2023-01-29T04:00:44;-7.52;85.36
70867;HTU21D;58487;53.474;49.470;2023-01-29T04:06:08;-7.53;85.00
70867;HTU21D;58487;53.474;49.470;2023-01-29T04:08:45;-7.56;85.24
70867;HTU21D;58487;53.474;49.470;2023-01-29T04:11:15;-7.65;85.39
70867;HTU21D;58487;53.474;49.470;2023-01-29T04:13:44;-7.65;85.16
70867;HTU21D;58487;53.474;49.470;2023-01-29T04:16:17;-7.65;85.26
70867;HTU21D;58487;53.474;49.470;2023-01-29T04:18:46;-7.64;85.01
70867;HTU21D;58487;53.474;49.470;2023-01-29T04:21:13;-7.66;84.69
70867;HTU21D;58487;53.474;49.470;2023-01-29T04:23:39;-7.56;84.68
70867;HTU21D;58487;53.474;49.470;2023-01-29T04:29:11;-7.68;83.97
70867;HTU21D;58487;53.474;49.470;2023-01-29T04:40:46;-7.82;83.94
70867;HTU21D;58487;53.474;49.470;2023-01-29T04:43:20;-7.84;83.27
70867;HTU21D;58487;53.474;49.470;2023-01-29T04:51:44;-7.81;84.15
70867;HTU21D;58487;53.474;49.470;2023-01-29T04:54:11;-7.82;84.17
70867;HTU21D;58487;53.474;49.470;2023-01-29T04:59:27;-7.80;84.12
70867;HTU21D;58487;53.474;49.470;2023-01-29T05:01:55;-7.84;84.13
70867;HTU21D;58487;53.474;49.470;2023-01-29T05:04:24;-7.81;83.24
70867;HTU21D;58487;53.474;49.470;2023-01-29T05:06:51;-7.79;83.49
70867;HTU21D;58487;53.474;49.470;2023-01-29T05:09:18;-7.75;83.30
70867;HTU21D;58487;53.474;49.470;2023-01-29T05:11:46;-7.72;83.56
70867;HTU21D;58487;53.474;49.470;2023-01-29T05:14:13;-7.71;83.45
70867;HTU21D;58487;53.474;49.470;2023-01-29T05:16:43;-7.75;82.84
70867;HTU21D;58487;53.474;49.470;2023-01-29T05:19:11;-7.72;82.31
70867;HTU21D;58487;53.474;49.470;2023-01-29T05:21:40;-7.76;82.03
70867;HTU21D;58487;53.474;49.470;2023-01-29T05:24:19;-7.70;82.03
70867;HTU21D;58487;53.474;49.470;2023-01-29T05:26:47;-7.60;81.43
70867;HTU21D;58487;53.474;49.470;2023-01-29T05:29:32;-7.63;81.24
70867;HTU21D;58487;53.474;49.470;2023-01-29T05:32:01;-7.65;81.12
70867;HTU21D;58487;53.474;49.470;2023-01-29T05:34:29;-7.57;81.91
70867;HTU21D;58487;53.474;49.470;2023-01-29T05:36:55;-7.57;82.02
70867;HTU21D;58487;53.474;49.470;2023-01-29T05:39:21;-7.64;81.93
70867;HTU21D;58487;53.474;49.470;2023-01-29T05:41:47;-7.63;81.61
70867;HTU21D;58487;53.474;49.470;2023-01-29T05:44:13;-7.65;81.33
70867;HTU21D;58487;53.474;49.470;2023-01-29T05:46:39;-7.67;81.93
70867;HTU21D;58487;53.474;49.470;2023-01-29T05:49:05;-7.70;81.97
70867;HTU21D;58487;53.474;49.470;2023-01-29T05:51:31;-7.66;81.55
70867;HTU21D;58487;53.474;49.470;2023-01-29T05:53:57;-7.55;81.27
70867;HTU21D;58487;53.474;49.470;2023-01-29T05:56:23;-7.59;80.30
70867;HTU21D;58487;53.474;49.470;2023-01-29T05:58:50;-7.56;80.79
70867;HTU21D;58487;53.474;49.470;2023-01-29T06:01:19;-7.65;80.60
70867;HTU21D;58487;53.474;49.470;2023-01-29T06:03:45;-7.62;80.45
70867;HTU21D;58487;53.474;49.470;2023-01-29T06:06:12;-7.65;80.38
70867;HTU21D;58487;53.474;49.470;2023-01-29T06:08:38;-7.66;80.59
70867;HTU21D;58487;53.474;49.470;2023-01-29T06:11:09;-7.66;79.19
70867;HTU21D;58487;53.474;49.470;2023-01-29T06:13:38;-7.68;79.21
70867;HTU21D;58487;53.474;49.470;2023-01-29T06:16:09;-7.66;79.17
70867;HTU21D;58487;53.474;49.470;2023-01-29T06:18:36;-7.57;79.43
70867;HTU21D;58487;53.474;49.470;2023-01-29T06:21:04;-7.56;79.06
70867;HTU21D;58487;53.474;49.470;2023-01-29T06:23:30;-7.52;78.75
70867;HTU21D;58487;53.474;49.470;2023-01-29T06:26:01;-7.47;78.79
70867;HTU21D;58487;53.474;49.470;2023-01-29T06:28:27;-7.39;77.33
70867;HTU21D;58487;53.474;49.470;2023-01-29T06:30:56;-7.42;77.37
70867;HTU21D;58487;53.474;49.470;2023-01-29T06:33:22;-7.37;77.34
70867;HTU21D;58487;53.474;49.470;2023-01-29T06:35:48;-7.36;77.60
70867;HTU21D;58487;53.474;49.470;2023-01-29T06:38:14;-7.29;76.75
70867;HTU21D;58487;53.474;49.470;2023-01-29T06:40:40;-7.23;76.21
70867;HTU21D;58487;53.474;49.470;2023-01-29T06:43:06;-7.25;76.93
70867;HTU21D;58487;53.474;49.470;2023-01-29T06:45:32;-7.27;75.78
70867;HTU21D;58487;53.474;49.470;2023-01-29T06:47:58;-7.23;75.77
70867;HTU21D;58487;53.474;49.470;2023-01-29T06:50:24;-7.23;75.31
70867;HTU21D;58487;53.474;49.470;2023-01-29T06:52:52;-7.21;76.37
70867;HTU21D;58487;53.474;49.470;2023-01-29T06:55:18;-7.17;76.67
70867;HTU21D;58487;53.474;49.470;2023-01-29T06:57:44;-7.15;75.50
70867;HTU21D;58487;53.474;49.470;2023-01-29T07:00:14;-7.06;76.51
70867;HTU21D;58487;53.474;49.470;2023-01-29T07:02:42;-7.16;75.14
70867;HTU21D;58487;53.474;49.470;2023-01-29T07:05:08;-7.17;75.12
70867;HTU21D;58487;53.474;49.470;2023-01-29T07:07:57;-7.23;75.45
70867;HTU21D;58487;53.474;49.470;2023-01-29T07:10:28;-6.98;74.77
70867;HTU21D;58487;53.474;49.470;2023-01-29T07:12:54;-6.88;74.41
70867;HTU21D;58487;53.474;49.470;2023-01-29T07:15:21;-7.01;75.03
70867;HTU21D;58487;53.474;49.470;2023-01-29T07:18:01;-7.11;74.42
70867;HTU21D;58487;53.474;49.470;2023-01-29T07:20:29;-7.02;74.08
70867;HTU21D;58487;53.474;49.470;2023-01-29T07:22:57;-7.17;74.44
70867;HTU21D;58487;53.474;49.470;2023-01-29T07:25:23;-7.13;74.85
70867;HTU21D;58487;53.474;49.470;2023-01-29T07:27:50;-7.03;74.04
70867;HTU21D;58487;53.474;49.470;2023-01-29T07:30:16;-6.88;73.21
70867;HTU21D;58487;53.474;49.470;2023-01-29T07:32:42;-7.06;73.94
70867;HTU21D;58487;53.474;49.470;2023-01-29T07:35:11;-6.93;73.19
70867;HTU21D;58487;53.474;49.470;2023-01-29T07:37:37;-6.81;72.39
70867;HTU21D;58487;53.474;49.470;2023-01-29T07:40:04;-6.85;72.21
70867;HTU21D;58487;53.474;49.470;2023-01-29T07:42:38;-6.72;71.78
70867;HTU21D;58487;53.474;49.470;2023-01-29T07:45:05;-6.75;71.52
70867;HTU21D;58487;53.474;49.470;2023-01-29T07:47:31;-7.04;72.64
70867;HTU21D;58487;53.474;49.470;2023-01-29T07:49:57;-7.01;73.30
70867;HTU21D;58487;53.474;49.470;2023-01-29T07:52:29;-6.88;72.56
70867;HTU21D;58487;53.474;49.470;2023-01-29T07:54:55;-7.05;72.72
70867;HTU21D;58487;53.474;49.470;2023-01-29T07:57:21;-7.10;72.80
70867;HTU21D;58487;53.474;49.470;2023-01-29T07:59:47;-7.06;73.25
70867;HTU21D;58487;53.474;49.470;2023-01-29T08:02:14;-6.98;72.85
70867;HTU21D;58487;53.474;49.470;2023-01-29T08:04:40;-6.85;72.11
70867;HTU21D;58487;53.474;49.470;2023-01-29T08:07:06;-6.77;71.86
70867;HTU21D;58487;53.474;49.470;2023-01-29T08:09:34;-6.74;71.45
70867;HTU21D;58487;53.474;49.470;2023-01-29T08:12:01;-6.82;71.67
70867;HTU21D;58487;53.474;49.470;2023-01-29T08:14:26;-6.81;71.58
70867;HTU21D;58487;53.474;49.470;2023-01-29T08:16:52;-6.88;71.61
70867;HTU21D;58487;53.474;49.470;2023-01-29T08:19:18;-6.94;71.74
70867;HTU21D;58487;53.474;49.470;2023-01-29T08:21:44;-7.08;72.35
70867;HTU21D;58487;53.474;49.470;2023-01-29T08:24:10;-7.23;73.04
70867;HTU21D;58487;53.474;49.470;2023-01-29T08:26:36;-7.22;73.00
70867;HTU21D;58487;53.474;49.470;2023-01-29T08:29:02;-7.30;73.01
70867;HTU21D;58487;53.474;49.470;2023-01-29T08:31:28;-7.34;72.98
70867;HTU21D;58487;53.474;49.470;2023-01-29T08:33:54;-7.29;73.06
70867;HTU21D;58487;53.474;49.470;2023-01-29T08:36:21;-7.20;72.27
70867;HTU21D;58487;53.474;49.470;2023-01-29T08:38:47;-7.16;72.38
70867;HTU21D;58487;53.474;49.470;2023-01-29T08:41:13;-7.18;72.58
70867;HTU21D;58487;53.474;49.470;2023-01-29T08:43:39;-7.00;71.79
70867;HTU21D;58487;53.474;49.470;2023-01-29T08:46:06;-6.82;71.22
70867;HTU21D;58487;53.474;49.470;2023-01-29T08:48:32;-6.74;70.90
70867;HTU21D;58487;53.474;49.470;2023-01-29T08:50:59;-6.71;69.91
70867;HTU21D;58487;53.474;49.470;2023-01-29T08:53:27;-6.68;70.17
70867;HTU21D;58487;53.474;49.470;2023-01-29T08:55:53;-6.70;70.38
70867;HTU21D;58487;53.474;49.470;2023-01-29T08:58:19;-6.75;70.84
70867;HTU21D;58487;53.474;49.470;2023-01-29T09:00:45;-6.86;71.42
70867;HTU21D;58487;53.474;49.470;2023-01-29T09:03:11;-6.73;70.49
70867;HTU21D;58487;53.474;49.470;2023-01-29T09:05:38;-6.51;70.33
70867;HTU21D;58487;53.474;49.470;2023-01-29T09:08:06;-6.36;69.36
70867;HTU21D;58487;53.474;49.470;2023-01-29T09:10:33;-6.28;69.12
70867;HTU21D;58487;53.474;49.470;2023-01-29T09:12:59;-6.41;69.50
70867;HTU21D;58487;53.474;49.470;2023-01-29T09:15:26;-6.47;69.87
70867;HTU21D;58487;53.474;49.470;2023-01-29T09:17:52;-6.39;69.42
70867;HTU21D;58487;53.474;49.470;2023-01-29T09:20:18;-6.41;69.59
70867;HTU21D;58487;53.474;49.470;2023-01-29T09:22:45;-6.30;69.10
70867;HTU21D;58487;53.474;49.470;2023-01-29T09:25:12;-6.35;68.94
70867;HTU21D;58487;53.474;49.470;2023-01-29T09:27:38;-6.23;68.92
70867;HTU21D;58487;53.474;49.470;2023-01-29T09:30:04;-6.33;69.21
70867;HTU21D;58487;53.474;49.470;2023-01-29T09:32:32;-6.21;68.49
70867;HTU21D;58487;53.474;49.470;2023-01-29T09:34:58;-5.97;67.42
70867;HTU21D;58487;53.474;49.470;2023-01-29T09:37:27;-5.76;67.23
70867;HTU21D;58487;53.474;49.470;2023-01-29T09:39:53;-5.58;66.15
70867;HTU21D;58487;53.474;49.470;2023-01-29T09:47:44;-5.86;68.39
70867;HTU21D;58487;53.474;49.470;2023-01-29T09:50:46;-5.96;67.88
70867;HTU21D;58487;53.474;49.470;2023-01-29T09:53:34;-5.74;67.25
70867;HTU21D;58487;53.474;49.470;2023-01-29T09:56:11;-5.38;66.08
70867;HTU21D;58487;53.474;49.470;2023-01-29T09:58:41;-5.29;64.89
70867;HTU21D;58487;53.474;49.470;2023-01-29T10:04:16;-5.23;64.85
70867;HTU21D;58487;53.474;49.470;2023-01-29T10:07:25;-5.45;65.69
70867;HTU21D;58487;53.474;49.470;2023-01-29T10:12:50;-6.00;67.98
70867;HTU21D;58487;53.474;49.470;2023-01-29T10:18:17;-6.23;68.84
70867;HTU21D;58487;53.474;49.470;2023-01-29T10:23:35;-6.14;68.36
70867;HTU21D;58487;53.474;49.470;2023-01-29T10:26:03;-6.00;68.01
70867;HTU21D;58487;53.474;49.470;2023-01-29T10:28:42;-5.92;67.50
70867;HTU21D;58487;53.474;49.470;2023-01-29T10:33:50;-5.87;66.56
70867;HTU21D;58487;53.474;49.470;2023-01-29T10:39:08;-6.14;67.21
70867;HTU21D;58487;53.474;49.470;2023-01-29T10:42:03;-6.47;68.28
70867;HTU21D;58487;53.474;49.470;2023-01-29T10:56:04;-4.09;60.67
70867;HTU21D;58487;53.474;49.470;2023-01-29T11:01:02;-4.35;61.44
70867;HTU21D;58487;53.474;49.470;2023-01-29T11:03:31;-4.01;60.62
70867;HTU21D;58487;53.474;49.470;2023-01-29T11:06:07;-3.96;60.04
70867;HTU21D;58487;53.474;49.470;2023-01-29T11:08:53;-3.74;59.22
70867;HTU21D;58487;53.474;49.470;2023-01-29T11:11:21;-3.74;59.83
70867;HTU21D;58487;53.474;49.470;2023-01-29T11:13:59;-3.79;59.17
70867;HTU21D;58487;53.474;49.470;2023-01-29T11:16:29;-3.25;58.29
70867;HTU21D;58487;53.474;49.470;2023-01-29T11:18:59;-3.36;58.20
70867;HTU21D;58487;53.474;49.470;2023-01-29T11:21:27;-3.16;57.79
70867;HTU21D;58487;53.474;49.470;2023-01-29T11:24:13;-2.72;57.01
70867;HTU21D;58487;53.474;49.470;2023-01-29T11:26:44;-2.43;55.68
70867;HTU21D;58487;53.474;49.470;2023-01-29T11:31:52;-2.73;56.70
70867;HTU21D;58487;53.474;49.470;2023-01-29T11:34:21;-2.93;57.64
70867;HTU21D;58487;53.474;49.470;2023-01-29T11:37:03;-2.78;56.22
70867;HTU21D;58487;53.474;49.470;2023-01-29T11:39:43;-2.80;56.83
70867;HTU21D;58487;53.474;49.470;2023-01-29T11:42:21;-2.26;55.77
70867;HTU21D;58487;53.474;49.470;2023-01-29T11:44:47;-1.85;54.61
70867;HTU21D;58487;53.474;49.470;2023-01-29T11:47:17;-2.41;55.94
70867;HTU21D;58487;53.474;49.470;2023-01-29T11:49:48;-2.81;56.77
70867;HTU21D;58487;53.474;49.470;2023-01-29T11:52:17;-3.00;57.44
70867;HTU21D;58487;53.474;49.470;2023-01-29T11:55:32;-3.40;58.55
70867;HTU21D;58487;53.474;49.470;2023-01-29T11:57:41;-3.60;59.93
70867;HTU21D;58487;53.474;49.470;2023-01-29T12:00:23;-3.12;58.51
70867;HTU21D;58487;53.474;49.470;2023-01-29T12:02:57;-2.72;56.70
70867;HTU21D;58487;53.474;49.470;2023-01-29T12:05:27;-2.56;55.90
70867;HTU21D;58487;53.474;49.470;2023-01-29T12:07:55;-2.61;56.37
70867;HTU21D;58487;53.474;49.470;2023-01-29T12:10:40;-2.76;56.11
70867;HTU21D;58487;53.474;49.470;2023-01-29T12:15:38;-2.76;56.04
70867;HTU21D;58487;53.474;49.470;2023-01-29T12:20:56;-3.53;58.27
70867;HTU21D;58487;53.474;49.470;2023-01-29T12:26:31;-4.27;61.54
70867;HTU21D;58487;53.474;49.470;2023-01-29T12:40:11;-5.14;63.18
70867;HTU21D;58487;53.474;49.470;2023-01-29T12:42:40;-5.43;64.64
70867;HTU21D;58487;53.474;49.470;2023-01-29T12:45:08;-6.00;66.58
70867;HTU21D;58487;53.474;49.470;2023-01-29T12:47:45;-6.11;67.28
70867;HTU21D;58487;53.474;49.470;2023-01-29T12:53:14;-6.15;67.14
70867;HTU21D;58487;53.474;49.470;2023-01-29T12:55:48;-6.19;67.01
70867;HTU21D;58487;53.474;49.470;2023-01-29T12:58:21;-6.17;67.22
70867;HTU21D;58487;53.474;49.470;2023-01-29T13:00:51;-6.00;66.62
70867;HTU21D;58487;53.474;49.470;2023-01-29T13:03:26;-5.96;65.85
70867;HTU21D;58487;53.474;49.470;2023-01-29T13:06:10;-6.24;66.62
70867;HTU21D;58487;53.474;49.470;2023-01-29T13:08:58;-6.49;67.35
70867;HTU21D;58487;53.474;49.470;2023-01-29T13:11:32;-6.66;67.78
70867;HTU21D;58487;53.474;49.470;2023-01-29T13:14:24;-7.17;70.07
70867;HTU21D;58487;53.474;49.470;2023-01-29T13:17:05;-7.03;69.63
70867;HTU21D;58487;53.474;49.470;2023-01-29T13:19:42;-7.05;69.68
70867;HTU21D;58487;53.474;49.470;2023-01-29T13:22:25;-7.41;70.84
70867;HTU21D;58487;53.474;49.470;2023-01-29T13:24:53;-7.61;71.55
70867;HTU21D;58487;53.474;49.470;2023-01-29T13:27:30;-7.92;71.79
70867;HTU21D;58487;53.474;49.470;2023-01-29T13:29:57;-8.09;73.28
70867;HTU21D;58487;53.474;49.470;2023-01-29T13:32:29;-8.07;73.32
70867;HTU21D;58487;53.474;49.470;2023-01-29T13:34:58;-8.07;73.10
70867;HTU21D;58487;53.474;49.470;2023-01-29T13:37:30;-8.03;73.19
70867;HTU21D;58487;53.474;49.470;2023-01-29T13:39:58;-8.13;73.09
70867;HTU21D;58487;53.474;49.470;2023-01-29T13:45:02;-8.05;72.90
70867;HTU21D;58487;53.474;49.470;2023-01-29T13:47:37;-8.07;72.69
70867;HTU21D;58487;53.474;49.470;2023-01-29T13:52:56;-8.05;72.52
70867;HTU21D;58487;53.474;49.470;2023-01-29T13:55:31;-8.19;72.80
70867;HTU21D;58487;53.474;49.470;2023-01-29T13:58:00;-8.44;73.66
70867;HTU21D;58487;53.474;49.470;2023-01-29T14:10:26;-8.93;76.72
70867;HTU21D;58487;53.474;49.470;2023-01-29T14:12:54;-8.97;76.53
70867;HTU21D;58487;53.474;49.470;2023-01-29T14:15:39;-8.85;76.57
70867;HTU21D;58487;53.474;49.470;2023-01-29T14:18:14;-8.88;76.47
70867;HTU21D;58487;53.474;49.470;2023-01-29T14:25:58;-8.92;76.41
70867;HTU21D;58487;53.474;49.470;2023-01-29T14:28:30;-9.13;76.72
70867;HTU21D;58487;53.474;49.470;2023-01-29T14:30:57;-9.11;77.66
70867;HTU21D;58487;53.474;49.470;2023-01-29T14:33:35;-8.94;76.75
70867;HTU21D;58487;53.474;49.470;2023-01-29T14:36:13;-9.08;77.51
70867;HTU21D;58487;53.474;49.470;2023-01-29T14:38:47;-8.97;76.49
70867;HTU21D;58487;53.474;49.470;2023-01-29T14:41:34;-9.08;77.49
70867;HTU21D;58487;53.474;49.470;2023-01-29T14:47:04;-9.28;77.54
70867;HTU21D;58487;53.474;49.470;2023-01-29T14:49:56;-9.36;79.04
70867;HTU21D;58487;53.474;49.470;2023-01-29T14:52:36;-9.31;79.01
70867;HTU21D;58487;53.474;49.470;2023-01-29T14:55:08;-9.31;78.49
70867;HTU21D;58487;53.474;49.470;2023-01-29T14:57:36;-9.40;79.08
70867;HTU21D;58487;53.474;49.470;2023-01-29T15:00:05;-9.33;79.54
70867;HTU21D;58487;53.474;49.470;2023-01-29T15:02:41;-9.11;78.82
70867;HTU21D;58487;53.474;49.470;2023-01-29T15:05:15;-9.12;78.20
70867;HTU21D;58487;53.474;49.470;2023-01-29T15:08:03;-9.24;78.47
70867;HTU21D;58487;53.474;49.470;2023-01-29T15:13:32;-9.37;79.45
70867;HTU21D;58487;53.474;49.470;2023-01-29T15:16:09;-9.32;79.75
70867;HTU21D;58487;53.474;49.470;2023-01-29T15:18:42;-9.28;79.24
70867;HTU21D;58487;53.474;49.470;2023-01-29T15:21:13;-9.15;79.33
70867;HTU21D;58487;53.474;49.470;2023-01-29T15:23:39;-9.07;78.37
70867;HTU21D;58487;53.474;49.470;2023-01-29T15:26:10;-9.00;77.92
70867;HTU21D;58487;53.474;49.470;2023-01-29T15:28:38;-8.98;78.15
70867;HTU21D;58487;53.474;49.470;2023-01-29T15:31:06;-9.05;77.89
70867;HTU21D;58487;53.474;49.470;2023-01-29T15:33:36;-9.15;78.81
70867;HTU21D;58487;53.474;49.470;2023-01-29T15:36:06;-9.20;78.73
70867;HTU21D;58487;53.474;49.470;2023-01-29T15:38:33;-9.26;79.08
70867;HTU21D;58487;53.474;49.470;2023-01-29T15:41:02;-9.15;79.04
70867;HTU21D;58487;53.474;49.470;2023-01-29T15:43:30;-8.98;78.47
70867;HTU21D;58487;53.474;49.470;2023-01-29T15:46:05;-8.93;78.12
70867;HTU21D;58487;53.474;49.470;2023-01-29T15:48:36;-8.87;77.72
70867;HTU21D;58487;53.474;49.470;2023-01-29T15:51:07;-8.94;77.89
70867;HTU21D;58487;53.474;49.470;2023-01-29T15:53:42;-9.02;78.01
70867;HTU21D;58487;53.474;49.470;2023-01-29T15:56:11;-8.87;77.82
70867;HTU21D;58487;53.474;49.470;2023-01-29T15:58:40;-8.74;76.89
70867;HTU21D;58487;53.474;49.470;2023-01-29T16:01:07;-8.70;75.99
70867;HTU21D;58487;53.474;49.470;2023-01-29T16:03:33;-8.72;75.93
70867;HTU21D;58487;53.474;49.470;2023-01-29T16:06:02;-8.80;75.80
70867;HTU21D;58487;53.474;49.470;2023-01-29T16:08:32;-8.94;76.50
70867;HTU21D;58487;53.474;49.470;2023-01-29T16:11:01;-8.98;76.36
70867;HTU21D;58487;53.474;49.470;2023-01-29T16:13:33;-9.01;76.63
70867;HTU21D;58487;53.474;49.470;2023-01-29T16:16:02;-8.99;76.39
70867;HTU21D;58487;53.474;49.470;2023-01-29T16:18:36;-8.89;75.93
70867;HTU21D;58487;53.474;49.470;2023-01-29T16:24:12;-9.10;76.19
70867;HTU21D;58487;53.474;49.470;2023-01-29T16:26:45;-9.03;76.15
70867;HTU21D;58487;53.474;49.470;2023-01-29T16:29:15;-9.14;76.41
70867;HTU21D;58487;53.474;49.470;2023-01-29T16:31:43;-9.18;76.73
70867;HTU21D;58487;53.474;49.470;2023-01-29T16:36:59;-9.22;76.94
70867;HTU21D;58487;53.474;49.470;2023-01-29T16:39:30;-9.36;78.07
70867;HTU21D;58487;53.474;49.470;2023-01-29T16:44:38;-9.69;79.51
70867;HTU21D;58487;53.474;49.470;2023-01-29T16:49:56;-9.64;78.88
70867;HTU21D;58487;53.474;49.470;2023-01-29T16:52:33;-9.55;78.45
70867;HTU21D;58487;53.474;49.470;2023-01-29T16:55:20;-9.49;77.96
70867;HTU21D;58487;53.474;49.470;2023-01-29T16:57:51;-9.37;77.56
70867;HTU21D;58487;53.474;49.470;2023-01-29T17:00:26;-9.40;77.75
70867;HTU21D;58487;53.474;49.470;2023-01-29T17:03:03;-9.46;78.39
70867;HTU21D;58487;53.474;49.470;2023-01-29T17:05:33;-9.51;78.76
70867;HTU21D;58487;53.474;49.470;2023-01-29T17:08:00;-9.54;78.65
70867;HTU21D;58487;53.474;49.470;2023-01-29T17:10:29;-9.63;79.02
70867;HTU21D;58487;53.474;49.470;2023-01-29T17:15:42;-9.62;78.83
70867;HTU21D;58487;53.474;49.470;2023-01-29T17:18:34;-9.63;78.84
70867;HTU21D;58487;53.474;49.470;2023-01-29T17:21:23;-9.69;79.66
70867;HTU21D;58487;53.474;49.470;2023-01-29T17:24:10;-9.70;79.54
70867;HTU21D;58487;53.474;49.470;2023-01-29T17:26:49;-9.66;79.62
70867;HTU21D;58487;53.474;49.470;2023-01-29T17:29:39;-9.70;79.57
70867;HTU21D;58487;53.474;49.470;2023-01-29T19:20:41;-10.17;80.17
70867;HTU21D;58487;53.474;49.470;2023-01-29T19:23:08;-10.20;80.44
70867;HTU21D;58487;53.474;49.470;2023-01-29T19:25:38;-10.21;81.76
70867;HTU21D;58487;53.474;49.470;2023-01-29T19:28:05;-9.99;82.68
70867;HTU21D;58487;53.474;49.470;2023-01-29T19:30:32;-9.96;80.84
70867;HTU21D;58487;53.474;49.470;2023-01-29T19:32:58;-9.97;82.23
70867;HTU21D;58487;53.474;49.470;2023-01-29T19:35:25;-9.63;82.81
70867;HTU21D;58487;53.474;49.470;2023-01-29T19:37:51;-9.55;82.49
70867;HTU21D;58487;53.474;49.470;2023-01-29T19:40:18;-9.58;80.94
70867;HTU21D;58487;53.474;49.470;2023-01-29T19:42:44;-9.85;79.99
70867;HTU21D;58487;53.474;49.470;2023-01-29T19:45:11;-10.06;80.90
70867;HTU21D;58487;53.474;49.470;2023-01-29T19:47:38;-10.08;81.25
70867;HTU21D;58487;53.474;49.470;2023-01-29T19:50:06;-10.02;81.72
70867;HTU21D;58487;53.474;49.470;2023-01-29T19:52:32;-9.91;81.33
70867;HTU21D;58487;53.474;49.470;2023-01-29T19:55:04;-9.85;81.20
70867;HTU21D;58487;53.474;49.470;2023-01-29T19:57:31;-9.64;83.62
70867;HTU21D;58487;53.474;49.470;2023-01-29T20:00:01;-9.42;83.26